Time;durP1;ratioP1;P1;durP2;ratioP2;P2;SDS_P1;SDS_P2;PMS_P1;PMS_P2;Temp;Humidity;BMP_temperature;BMP_pressure;BME280_temperature;BME280_humidity;BME280_pressure;Samples;Min_cycle;Max_cycle;Signal;HPM_P1;HPM_P2
2022/07/26 00:01:53;;;;;;;3.45;2.47;;;;;;;15.92;100.00;99180.25;5092063;28;20084;-50
2022/07/26 00:04:20;;;;;;;6.68;3.47;;;;;;;15.95;100.00;99171.94;5092284;28;20050;-50
2022/07/26 00:06:46;;;;;;;2.90;2.60;;;;;;;15.89;100.00;99156.16;5091830;28;20063;-50
2022/07/26 00:09:12;;;;;;;4.25;3.90;;;;;;;15.90;100.00;99152.22;5091505;28;20579;-51
2022/07/26 00:11:39;;;;;;;5.60;3.05;;;;;;;15.88;100.00;99140.78;5091412;28;20052;-50
2022/07/26 00:14:06;;;;;;;4.30;2.80;;;;;;;15.87;100.00;99134.47;5091654;28;20048;-50
2022/07/26 00:16:33;;;;;;;9.38;3.45;;;;;;;15.88;100.00;99124.19;5091454;28;20101;-50
2022/07/26 00:19:00;;;;;;;4.22;3.85;;;;;;;15.88;100.00;99129.72;5091388;28;20044;-50
2022/07/26 00:21:26;;;;;;;3.13;2.72;;;;;;;15.86;100.00;99138.44;5091509;28;20048;-51
2022/07/26 00:23:52;;;;;;;3.60;3.30;;;;;;;15.85;100.00;99134.06;5091351;28;20135;-49
2022/07/26 00:26:19;;;;;;;4.20;3.80;;;;;;;15.77;100.00;99135.28;5091543;28;20078;-50
2022/07/26 00:28:45;;;;;;;7.00;2.97;;;;;;;15.78;100.00;99125.81;5091091;28;20178;-50
2022/07/26 00:31:11;;;;;;;4.38;2.97;;;;;;;15.76;100.00;99115.16;5091263;28;20055;-49
2022/07/26 00:33:38;;;;;;;5.05;3.13;;;;;;;15.72;100.00;99124.63;5091174;28;20526;-50
2022/07/26 00:36:06;;;;;;;3.63;3.03;;;;;;;15.73;100.00;99126.22;5091050;28;20097;-51
2022/07/26 00:38:32;;;;;;;3.55;2.80;;;;;;;15.63;100.00;99124.25;5091233;28;20072;-51
2022/07/26 00:40:59;;;;;;;4.15;3.72;;;;;;;15.54;100.00;99110.84;5091243;28;20050;-50
2022/07/26 00:43:25;;;;;;;6.60;2.85;;;;;;;15.50;100.00;99110.88;5091283;28;20055;-50
2022/07/26 00:45:51;;;;;;;5.35;3.03;;;;;;;15.50;100.00;99082.47;5090320;28;20052;-51
2022/07/26 00:48:18;;;;;;;5.50;3.35;;;;;;;15.43;100.00;99088.00;5091206;28;20080;-50
2022/07/26 00:50:45;;;;;;;8.90;2.80;;;;;;;15.46;100.00;99088.00;5091275;28;20545;-50
2022/07/26 00:53:12;;;;;;;3.42;3.13;;;;;;;15.42;100.00;99078.91;5091175;28;20063;-50
2022/07/26 00:55:38;;;;;;;2.80;2.58;;;;;;;15.40;100.00;99075.00;5090738;28;20539;-51
2022/07/26 00:58:05;;;;;;;9.10;3.40;;;;;;;15.40;100.00;99066.72;5091047;28;20044;-50
2022/07/26 01:00:32;;;;;;;4.53;2.97;;;;;;;15.42;100.00;99067.88;5090739;28;20404;-51
2022/07/26 01:02:59;;;;;;;3.55;3.13;;;;;;;15.39;100.00;99065.91;5090618;28;20512;-49
2022/07/26 01:05:26;;;;;;;4.32;2.67;;;;;;;15.35;100.00;99067.09;5090633;28;20048;-50
2022/07/26 01:07:53;;;;;;;4.90;2.72;;;;;;;15.32;100.00;99056.84;5090528;28;20143;-49
2022/07/26 01:10:20;;;;;;;3.22;2.92;;;;;;;15.38;100.00;99060.78;5090680;28;20090;-50
2022/07/26 01:12:47;;;;;;;3.50;3.13;;;;;;;15.36;100.00;99069.47;5090599;28;20526;-49
2022/07/26 01:15:15;;;;;;;4.45;4.05;;;;;;;15.29;100.00;99070.28;5090680;28;20109;-50
2022/07/26 01:17:41;;;;;;;4.60;3.22;;;;;;;15.34;100.00;99060.81;5090661;28;20071;-50
2022/07/26 01:20:10;;;;;;;4.05;2.65;;;;;;;15.33;100.00;99055.66;5090643;28;20150;-51
2022/07/26 01:22:37;;;;;;;7.10;3.03;;;;;;;15.37;100.00;99050.94;5090335;28;20139;-50
2022/07/26 01:25:05;;;;;;;4.47;2.92;;;;;;;15.37;100.00;99057.25;5090555;28;20058;-53
2022/07/26 01:27:33;;;;;;;4.47;3.20;;;;;;;15.37;100.00;99054.47;5090320;28;20427;-50
2022/07/26 01:29:59;;;;;;;3.10;2.80;;;;;;;15.24;100.00;99070.69;5090258;28;20063;-50
2022/07/26 01:32:26;;;;;;;7.10;3.10;;;;;;;15.27;100.00;99055.31;5090191;28;20143;-49
2022/07/26 01:34:52;;;;;;;3.60;2.83;;;;;;;15.27;100.00;99058.06;5090238;28;20140;-50
2022/07/26 01:37:18;;;;;;;3.35;2.63;;;;;;;15.25;100.00;99060.44;5090447;28;20157;-51
2022/07/26 01:39:45;;;;;;;3.45;2.88;;;;;;;15.21;100.00;99052.16;5090244;28;20555;-50
2022/07/26 01:42:11;;;;;;;4.88;3.13;;;;;;;15.24;100.00;99056.88;5090443;28;20130;-50
2022/07/26 01:44:39;;;;;;;5.57;3.33;;;;;;;15.19;100.00;99059.25;5090145;28;20080;-50
2022/07/26 01:47:05;;;;;;;3.20;2.90;;;;;;;15.13;100.00;99056.13;5090232;28;20048;-49
2022/07/26 01:49:32;;;;;;;7.07;2.70;;;;;;;15.14;100.00;99054.16;5090065;28;20126;-52
2022/07/26 01:51:58;;;;;;;4.55;2.80;;;;;;;15.11;100.00;99055.72;5090188;28;20043;-50
2022/07/26 01:54:24;;;;;;;5.90;3.03;;;;;;;15.09;100.00;99054.53;5089910;28;20069;-49
2022/07/26 01:56:51;;;;;;;4.15;2.85;;;;;;;15.15;100.00;99058.47;5089911;28;20586;-50
2022/07/26 01:59:18;;;;;;;5.28;3.00;;;;;;;15.14;100.00;99060.47;5089802;28;20070;-51
2022/07/26 02:01:44;;;;;;;2.60;2.40;;;;;;;15.04;100.00;99073.09;5089960;28;20062;-50
2022/07/26 02:04:57;;;;;;;5.28;3.42;;;;;;;15.09;100.00;99065.59;5089691;28;20058;-51
2022/07/26 02:06:56;;;;;;;4.30;2.72;;;;;;;15.06;100.00;99059.69;5089632;28;20055;-49
2022/07/26 02:09:23;;;;;;;3.67;2.70;;;;;;;15.03;100.00;99054.97;5090042;28;20048;-50
2022/07/26 02:11:49;;;;;;;10.73;2.85;;;;;;;15.03;100.00;99056.94;5089596;28;20624;-49
2022/07/26 02:14:16;;;;;;;6.65;3.53;;;;;;;15.03;100.00;99056.94;5090013;28;20139;-52
2022/07/26 02:16:42;;;;;;;2.95;2.60;;;;;;;15.04;100.00;99056.53;5089676;28;20055;-50
2022/07/26 02:19:09;;;;;;;4.53;4.10;;;;;;;15.02;100.00;99052.59;5089909;28;20138;-50
2022/07/26 02:21:35;;;;;;;2.60;2.40;;;;;;;14.91;100.00;99044.31;5089856;28;20083;-50
2022/07/26 02:24:02;;;;;;;6.10;3.45;;;;;;;15.00;100.00;99050.22;5089611;28;20048;-50
2022/07/26 02:26:28;;;;;;;3.50;3.17;;;;;;;14.96;100.00;99054.97;5089542;28;20071;-50
2022/07/26 02:28:54;;;;;;;3.67;3.22;;;;;;;14.96;100.00;99054.16;5089482;28;20520;-52
2022/07/26 02:31:21;;;;;;;6.07;2.80;;;;;;;15.02;100.00;99041.53;5089657;28;20529;-50
2022/07/26 02:33:48;;;;;;;4.18;3.40;;;;;;;15.06;100.00;99054.16;5089757;28;20048;-51
2022/07/26 02:36:14;;;;;;;4.00;2.75;;;;;;;15.07;100.00;99055.75;5089859;28;20435;-53
2022/07/26 02:38:40;;;;;;;3.70;3.00;;;;;;;15.07;100.00;99063.25;5089955;28;20108;-54
2022/07/26 02:41:07;;;;;;;3.42;2.45;;;;;;;15.13;100.00;99055.31;5090034;28;20079;-52
2022/07/26 02:43:33;;;;;;;4.20;3.38;;;;;;;15.12;100.00;99062.81;5089542;28;20450;-52
2022/07/26 02:45:59;;;;;;;3.58;2.70;;;;;;;15.17;100.00;99054.13;5089829;28;20139;-50
2022/07/26 02:48:26;;;;;;;6.78;3.05;;;;;;;15.39;100.00;99051.31;5089407;28;20079;-50
2022/07/26 02:50:52;;;;;;;5.20;3.10;;;;;;;15.80;100.00;99070.91;5089373;28;20552;-53
2022/07/26 02:53:19;;;;;;;3.35;2.55;;;;;;;16.28;100.00;99111.72;5089304;28;20131;-50
2022/07/26 02:55:45;;;;;;;12.38;3.03;;;;;;;16.82;100.00;99178.59;5089444;28;20135;-51
2022/07/26 02:58:11;;;;;;;3.67;3.10;;;;;;;17.17;100.00;99235.72;5089120;28;20645;-50
2022/07/26 03:00:37;;;;;;;4.55;2.92;;;;;;;17.46;100.00;99238.25;5089239;28;20048;-50
2022/07/26 03:03:04;;;;;;;4.68;2.97;;;;;;;17.78;100.00;99210.25;5089353;28;20056;-52
2022/07/26 03:05:31;;;;;;;3.90;3.00;;;;;;;18.16;100.00;99163.06;5089110;28;20087;-50
2022/07/26 03:07:57;;;;;;;5.03;2.38;;;;;;;18.41;100.00;99081.44;5089664;28;20139;-50
2022/07/26 03:10:23;;;;;;;3.97;3.15;;;;;;;18.75;100.00;98992.47;5092370;28;20083;-52
2022/07/26 03:12:49;;;;;;;3.28;2.97;;;;;;;18.82;100.00;98892.34;5093001;28;20131;-51
2022/07/26 03:15:16;;;;;;;3.95;2.67;;;;;;;19.05;100.00;98814.47;5092399;28;20134;-51
2022/07/26 03:17:42;;;;;;;4.07;2.70;;;;;;;19.45;100.00;98721.84;5092653;28;20433;-52
2022/07/26 03:20:10;;;;;;;3.97;2.30;;;;;;;19.70;100.00;98546.84;5092540;28;20054;-50
2022/07/26 03:22:37;;;;;;;4.45;2.85;;;;;;;19.90;100.00;98471.53;5092324;28;20051;-52
2022/07/26 03:25:03;;;;;;;5.35;2.60;;;;;;;20.07;100.00;98436.03;5092562;28;20487;-50
2022/07/26 03:27:30;;;;;;;3.80;2.65;;;;;;;20.24;100.00;98377.47;5092395;28;20530;-51
2022/07/26 03:29:56;;;;;;;7.60;3.20;;;;;;;20.60;100.00;98340.84;5092571;28;20502;-50
2022/07/26 03:32:22;;;;;;;10.00;3.38;;;;;;;20.67;100.00;98265.38;5092400;28;20522;-51
2022/07/26 03:34:48;;;;;;;16.08;2.42;;;;;;;20.85;100.00;98197.84;5092374;28;20044;-50
2022/07/26 03:37:15;;;;;;;7.55;3.20;;;;;;;21.07;100.00;98173.47;5092175;28;20143;-52
2022/07/26 03:39:42;;;;;;;9.52;2.65;;;;;;;21.29;100.00;98122.41;5092357;28;20083;-51
2022/07/26 03:42:08;;;;;;;7.30;3.17;;;;;;;21.50;100.00;98065.78;5092140;28;20143;-53
2022/07/26 03:44:34;;;;;;;7.68;2.83;;;;;;;21.60;100.00;98045.03;5092225;28;20518;-51
2022/07/26 03:47:01;;;;;;;6.47;3.08;;;;;;;21.79;100.00;98020.66;5091881;28;20087;-51
2022/07/26 03:49:27;;;;;;;7.00;3.15;;;;;;;22.01;100.00;98003.69;5091963;28;20044;-51
2022/07/26 03:51:54;;;;;;;21.52;3.80;;;;;;;22.10;100.00;97983.34;5092082;28;20443;-55
2022/07/26 03:54:21;;;;;;;14.05;3.13;;;;;;;22.28;100.00;97979.72;5092152;28;20047;-50
2022/07/26 03:56:47;;;;;;;10.05;3.42;;;;;;;22.54;100.00;97915.81;5091608;28;20182;-51
2022/07/26 03:59:14;;;;;;;7.13;2.70;;;;;;;22.79;100.00;97889.38;5091685;28;20056;-52
2022/07/26 04:01:41;;;;;;;12.20;2.72;;;;;;;23.05;100.00;97856.13;5091999;28;20491;-51
2022/07/26 04:04:08;;;;;;;2.67;2.42;;;;;;;23.42;100.00;97794.97;5091508;28;20135;-51
2022/07/26 04:06:35;;;;;;;7.45;2.70;;;;;;;23.66;100.00;97780.84;5091904;28;20101;-51
2022/07/26 04:09:01;;;;;;;8.05;2.63;;;;;;;23.75;100.00;97754.78;5091491;28;20502;-53
2022/07/26 04:11:28;;;;;;;5.82;2.70;;;;;;;24.09;100.00;97749.59;5091917;28;20065;-51
2022/07/26 04:13:55;;;;;;;4.22;2.55;;;;;;;24.25;100.00;97751.81;5091538;28;20105;-52
2022/07/26 04:16:21;;;;;;;4.78;2.72;;;;;;;24.62;100.00;97745.63;5091474;28;20055;-53
2022/07/26 04:18:47;;;;;;;7.15;2.53;;;;;;;24.59;100.00;97739.00;5091694;28;20052;-51
2022/07/26 04:21:13;;;;;;;6.50;2.88;;;;;;;24.63;100.00;97736.72;5090419;28;20118;-55
2022/07/26 04:23:40;;;;;;;4.18;2.58;;;;;;;24.69;100.00;97745.16;5091556;28;20047;-55
2022/07/26 04:26:06;;;;;;;4.78;2.97;;;;;;;24.84;100.00;97740.22;5091694;28;20189;-51
2022/07/26 04:28:32;;;;;;;5.05;2.65;;;;;;;25.21;100.00;97745.13;5091480;28;20058;-51
2022/07/26 04:31:00;;;;;;;5.05;2.40;;;;;;;25.61;100.00;97745.38;5091288;28;20059;-55
2022/07/26 04:33:27;;;;;;;3.20;2.20;;;;;;;25.65;100.00;97754.34;5091526;28;20125;-54
2022/07/26 04:35:53;;;;;;;5.63;2.63;;;;;;;25.81;100.00;97757.25;5091110;28;20465;-55
2022/07/26 04:38:20;;;;;;;2.47;2.28;;;;;;;26.05;100.00;97776.50;5091346;28;20083;-55
2022/07/26 04:40:46;;;;;;;4.13;2.40;;;;;;;26.21;100.00;97805.94;5090945;28;20141;-53
2022/07/26 04:43:12;;;;;;;2.30;2.10;;;;;;;26.53;100.00;97803.03;5091236;28;20048;-54
2022/07/26 04:45:38;;;;;;;5.65;2.75;;;;;;;26.79;100.00;97845.03;5090866;28;20580;-55
2022/07/26 04:48:06;;;;;;;3.70;2.10;;;;;;;26.96;100.00;97840.19;5091048;28;20048;-56
2022/07/26 04:50:33;;;;;;;3.90;2.30;;;;;;;27.18;100.00;97849.94;5090904;28;20102;-55
2022/07/26 04:52:59;;;;;;;6.50;2.55;;;;;;;27.15;100.00;97848.16;5091148;28;20047;-55
2022/07/26 04:55:25;;;;;;;6.82;3.00;;;;;;;27.48;100.00;97867.09;5091186;28;20546;-51
2022/07/26 04:57:51;;;;;;;7.70;2.17;;;;;;;27.43;100.00;97879.91;5090991;28;20526;-52
2022/07/26 05:00:22;;;;;;;5.43;2.50;;;;;;;27.67;100.00;97889.88;5090785;28;20094;-55
2022/07/26 05:02:49;;;;;;;3.30;1.77;;;;;;;28.11;100.00;97984.09;5090862;28;20499;-55
2022/07/26 05:05:16;;;;;;;2.40;1.98;;;;;;;28.20;100.00;98036.63;5090988;28;20130;-52
2022/07/26 05:07:45;;;;;;;3.25;2.30;;;;;;;28.33;100.00;98082.72;5090756;28;20048;-53
2022/07/26 05:10:12;;;;;;;2.30;2.13;;;;;;;28.40;100.00;97977.19;5090511;28;20139;-51
2022/07/26 05:12:39;;;;;;;4.97;2.03;;;;;;;28.70;100.00;97968.13;5090667;28;20158;-52
2022/07/26 05:15:08;;;;;;;2.08;1.75;;;;;;;28.66;100.00;97990.97;5090613;28;20503;-54
2022/07/26 05:17:37;;;;;;;3.22;2.20;;;;;;;28.83;100.00;98002.19;5090955;28;20515;-54
2022/07/26 05:20:05;;;;;;;4.95;1.77;;;;;;;29.05;100.00;98007.75;5090347;28;20052;-53
2022/07/26 05:22:32;;;;;;;4.03;1.85;;;;;;;29.41;100.00;98091.78;5090693;28;20082;-52
2022/07/26 05:24:58;;;;;;;2.45;1.73;;;;;;;29.28;100.00;98081.81;5090279;28;20067;-53
2022/07/26 05:27:25;;;;;;;3.80;2.10;;;;;;;29.37;100.00;98069.47;5090660;28;20055;-55
2022/07/26 05:29:51;;;;;;;10.63;2.75;;;;;;;29.31;100.00;98099.78;5090297;28;20055;-53
2022/07/26 05:32:17;;;;;;;4.13;2.78;;;;;;;29.67;100.00;98085.78;5090323;28;20138;-55
2022/07/26 05:34:44;;;;;;;3.58;2.13;;;;;;;30.08;100.00;98121.75;5090415;28;20101;-53
2022/07/26 05:37:11;;;;;;;6.30;3.25;;;;;;;30.28;100.00;98095.94;5090609;28;20342;-54
2022/07/26 05:39:38;;;;;;;12.60;3.50;;;;;;;30.35;100.00;98108.72;5090360;28;20605;-53
2022/07/26 05:42:05;;;;;;;5.40;2.72;;;;;;;30.09;100.00;98087.31;5090239;28;20163;-53
2022/07/26 05:44:31;;;;;;;5.45;2.50;;;;;;;30.23;100.00;98137.09;5090220;28;20083;-52
2022/07/26 05:46:58;;;;;;;2.17;1.67;;;;;;;29.99;100.00;98157.53;5090692;28;20486;-54
2022/07/26 05:49:24;;;;;;;7.05;6.35;;;;;;;29.92;100.00;98126.97;5090210;28;20059;-52
2022/07/26 05:51:51;;;;;;;3.13;1.88;;;;;;;30.36;100.00;98212.06;5089939;28;20419;-52
2022/07/26 05:54:19;;;;;;;3.95;1.80;;;;;;;31.06;100.00;98255.81;5090182;28;20142;-53
2022/07/26 05:56:46;;;;;;;3.83;1.70;;;;;;;30.46;100.00;98219.69;5090000;28;20048;-54
2022/07/26 05:59:13;;;;;;;4.78;3.58;;;;;;;30.79;100.00;98171.91;5090277;28;20508;-53
2022/07/26 06:01:39;;;;;;;3.13;1.60;;;;;;;31.04;100.00;98187.63;5089861;28;20052;-53
2022/07/26 06:04:07;;;;;;;4.68;1.30;;;;;;;31.06;100.00;98179.38;5090175;28;20080;-55
2022/07/26 06:06:34;;;;;;;6.53;4.10;;;;;;;31.36;100.00;98204.06;5089700;28;20142;-50
2022/07/26 06:09:00;;;;;;;1.75;1.25;;;;;;;31.14;100.00;98250.31;5090062;28;20131;-51
2022/07/26 06:11:27;;;;;;;4.47;2.78;;;;;;;31.73;100.00;98239.47;5089557;28;20106;-53
2022/07/26 06:13:54;;;;;;;1.70;1.60;;;;;;;31.91;100.00;98286.16;5089800;28;20481;-53
2022/07/26 06:16:20;;;;;;;1.48;1.20;;;;;;;32.07;100.00;98222.84;5089639;28;20055;-55
2022/07/26 06:18:46;;;;;;;4.05;2.20;;;;;;;31.88;100.00;98262.47;5089703;28;20054;-53
2022/07/26 06:21:13;;;;;;;3.67;1.20;;;;;;;31.93;100.00;98267.34;5089953;28;20134;-54
2022/07/26 06:23:39;;;;;;;2.22;1.98;;;;;;;31.86;100.00;98243.16;5089414;28;20139;-51
2022/07/26 06:26:05;;;;;;;1.98;1.27;;;;;;;32.14;100.00;98261.16;5089704;28;20048;-53
2022/07/26 06:28:32;;;;;;;2.05;1.50;;;;;;;32.16;100.00;98310.34;5089505;28;20135;-52
2022/07/26 06:30:59;;;;;;;3.85;2.67;;;;;;;31.90;100.00;98296.75;5089665;28;20048;-53
2022/07/26 06:33:25;;;;;;;2.00;1.35;;;;;;;32.16;100.00;98255.69;5089292;28;20048;-55
2022/07/26 06:35:52;;;;;;;1.92;1.17;;;;;;;32.37;100.00;98272.97;5089449;28;20125;-52
2022/07/26 06:38:18;;;;;;;1.27;1.00;;;;;;;32.63;100.00;98289.41;5089295;28;20476;-54
2022/07/26 06:40:44;;;;;;;2.95;1.30;;;;;;;32.74;100.00;98318.38;5089138;28;20198;-54
2022/07/26 06:43:10;;;;;;;1.98;1.23;;;;;;;32.68;100.00;98294.22;5089515;28;20131;-51
2022/07/26 06:45:37;;;;;;;2.72;1.10;;;;;;;32.25;100.00;98284.44;5092747;28;20063;-54
2022/07/26 06:48:04;;;;;;;3.42;1.50;;;;;;;32.19;100.00;98280.13;5093028;28;20099;-51
2022/07/26 06:50:30;;;;;;;1.45;1.20;;;;;;;32.17;100.00;98268.59;5092702;28;20104;-54
2022/07/26 06:52:57;;;;;;;2.83;1.15;;;;;;;32.56;100.00;98256.72;5093022;28;20143;-55
2022/07/26 06:55:23;;;;;;;2.88;1.90;;;;;;;32.61;100.00;98243.75;5092477;28;20408;-52
2022/07/26 06:57:49;;;;;;;2.03;1.65;;;;;;;32.94;100.00;98243.22;5092755;28;20050;-53
2022/07/26 07:00:17;;;;;;;1.30;1.20;;;;;;;33.05;100.00;98276.38;5092447;28;20219;-53
2022/07/26 07:02:43;;;;;;;1.60;1.20;;;;;;;32.42;100.00;98243.75;5092701;28;20048;-51
2022/07/26 07:05:11;;;;;;;3.05;1.10;;;;;;;32.10;100.00;98233.09;5092360;28;20096;-51
2022/07/26 07:07:37;;;;;;;1.40;1.30;;;;;;;32.01;100.00;98213.63;5092443;28;20492;-54
2022/07/26 07:10:04;;;;;;;1.58;1.13;;;;;;;31.13;100.00;98206.34;5092384;28;20091;-53
2022/07/26 07:12:30;;;;;;;2.53;1.02;;;;;;;31.51;100.00;98198.75;5092643;28;20044;-53
2022/07/26 07:14:57;;;;;;;2.35;1.13;;;;;;;31.99;100.00;98219.06;5092636;28;20079;-54
2022/07/26 07:17:23;;;;;;;2.78;1.23;;;;;;;32.47;100.00;98234.44;5092231;28;20044;-54
2022/07/26 07:19:49;;;;;;;1.10;1.10;;;;;;;32.61;100.00;98213.31;5092346;28;20103;-55
2022/07/26 07:22:16;;;;;;;1.02;1.02;;;;;;;31.37;100.00;98220.53;5092136;28;20087;-54
2022/07/26 07:24:43;;;;;;;2.08;1.23;;;;;;;30.59;100.00;98173.84;5092494;28;20506;-53
2022/07/26 07:27:10;;;;;;;3.25;1.38;;;;;;;31.09;100.00;98163.38;5092040;28;20059;-54
2022/07/26 07:29:36;;;;;;;2.38;1.40;;;;;;;31.25;100.00;98204.91;5092096;28;20052;-51
2022/07/26 07:32:04;;;;;;;1.48;1.10;;;;;;;31.49;100.00;98180.75;5091990;28;20185;-53
2022/07/26 07:34:30;;;;;;;2.65;1.60;;;;;;;31.56;100.00;98208.50;5092134;28;20055;-54
2022/07/26 07:36:56;;;;;;;3.47;1.60;;;;;;;31.91;100.00;98237.97;5091815;28;20052;-52
2022/07/26 07:39:23;;;;;;;3.15;1.92;;;;;;;32.54;100.00;98223.22;5092010;28;20136;-54
2022/07/26 07:41:50;;;;;;;4.60;1.90;;;;;;;32.66;100.00;98218.16;5092128;28;20524;-54
2022/07/26 07:44:16;;;;;;;6.32;2.47;;;;;;;32.85;100.00;98242.88;5091720;28;20087;-53
2022/07/26 07:46:43;;;;;;;1.48;1.30;;;;;;;33.01;100.00;98256.03;5091962;28;20051;-54
2022/07/26 07:49:10;;;;;;;4.68;2.10;;;;;;;33.47;100.00;98251.88;5091686;28;20073;-54
2022/07/26 07:51:36;;;;;;;3.03;1.80;;;;;;;33.48;100.00;98239.22;5092050;28;20558;-54
2022/07/26 07:54:02;;;;;;;2.17;1.60;;;;;;;32.70;100.00;98212.91;5091727;28;20127;-54
2022/07/26 07:56:29;;;;;;;3.83;1.60;;;;;;;33.33;100.00;98210.56;5092030;28;20099;-54
2022/07/26 07:58:56;;;;;;;5.28;2.83;;;;;;;33.27;100.00;98212.75;5091954;28;20212;-55
2022/07/26 08:01:22;;;;;;;4.57;1.58;;;;;;;33.16;100.00;98210.88;5091869;28;20048;-54
2022/07/26 08:06:35;;;;;;;3.53;2.05;;;;;;;31.65;100.00;98188.28;5086733;28;20052;-53
2022/07/26 08:09:17;;;;;;;2.25;1.45;;;;;;;30.77;100.00;98160.34;5091670;28;20051;-54
2022/07/26 08:11:44;;;;;;;3.85;1.90;;;;;;;30.29;100.00;98125.75;5091398;28;20090;-51
2022/07/26 08:14:10;;;;;;;3.28;1.95;;;;;;;29.75;100.00;98112.19;5091764;28;20139;-51
2022/07/26 08:16:36;;;;;;;2.92;2.33;;;;;;;29.01;100.00;98041.13;5091124;28;20048;-53
2022/07/26 08:19:02;;;;;;;2.40;2.20;;;;;;;28.60;100.00;98072.75;5091674;28;20139;-54
2022/07/26 08:21:29;;;;;;;3.97;2.47;;;;;;;28.27;100.00;98003.06;5091132;28;20519;-51
2022/07/26 08:23:55;;;;;;;4.15;2.72;;;;;;;27.95;100.00;97996.16;5091300;28;20052;-52
2022/07/26 08:26:21;;;;;;;3.42;2.20;;;;;;;28.47;100.00;98004.09;5091138;28;20209;-51
2022/07/26 08:28:48;;;;;;;3.03;1.88;;;;;;;28.32;100.00;98033.28;5090873;28;20571;-52
2022/07/26 08:31:15;;;;;;;3.97;2.10;;;;;;;29.49;100.00;98036.28;5091159;28;20064;-54
2022/07/26 08:33:42;;;;;;;4.10;2.60;;;;;;;30.36;100.00;98108.22;5090823;28;20048;-51
2022/07/26 08:36:08;;;;;;;4.13;2.45;;;;;;;31.25;100.00;98107.88;5091052;28;20469;-52
2022/07/26 08:38:34;;;;;;;10.25;3.00;;;;;;;30.89;100.00;98141.97;5090947;28;20105;-52
2022/07/26 08:41:01;;;;;;;3.22;2.70;;;;;;;29.67;100.00;98105.56;5091395;28;20147;-50
2022/07/26 08:43:27;;;;;;;3.25;2.53;;;;;;;29.74;100.00;98077.50;5090879;28;20127;-53
2022/07/26 08:46:00;;;;;;;1.92;1.70;;;;;;;29.59;100.00;98096.06;5091243;28;20108;-54
2022/07/26 08:48:26;;;;;;;2.60;1.97;;;;;;;28.56;100.00;98029.94;5090874;28;20048;-50
2022/07/26 08:50:54;;;;;;;3.90;2.63;;;;;;;29.02;100.00;97972.16;5091012;28;20052;-54
2022/07/26 08:53:20;;;;;;;4.50;2.17;;;;;;;29.93;100.00;98076.91;5090960;28;20064;-54
2022/07/26 08:55:47;;;;;;;6.32;2.30;;;;;;;30.69;100.00;98076.03;5090600;28;20048;-52
2022/07/26 08:58:13;;;;;;;5.25;4.32;;;;;;;31.41;100.00;98102.03;5090710;28;20422;-54
2022/07/26 09:00:42;;;;;;;6.82;2.30;;;;;;;32.19;100.00;98121.34;5090754;28;20597;-55
2022/07/26 09:03:23;;;;;;;4.90;2.00;;;;;;;31.77;100.00;98120.91;5090891;28;20150;-51
2022/07/26 09:05:50;;;;;;;5.32;4.30;;;;;;;32.32;100.00;98118.56;5090106;28;20503;-56
2022/07/26 09:08:24;;;;;;;8.43;3.67;;;;;;;33.01;100.00;98163.13;5090598;28;20043;-51
2022/07/26 09:10:50;;;;;;;8.00;3.60;;;;;;;32.84;100.00;98193.09;5090403;28;20087;-54
2022/07/26 09:13:16;;;;;;;4.18;3.78;;;;;;;31.72;100.00;98159.34;5090448;28;20092;-52
2022/07/26 09:15:43;;;;;;;14.20;8.07;;;;;;;31.34;100.00;98122.47;5090646;28;20135;-54
2022/07/26 09:18:25;;;;;;;7.85;3.60;;;;;;;31.89;100.00;98164.84;5090449;28;20056;-55
2022/07/26 09:20:51;;;;;;;10.07;4.72;;;;;;;32.35;100.00;98135.28;5090689;28;20155;-52
2022/07/26 09:23:17;;;;;;;5.07;3.55;;;;;;;32.73;100.00;98148.66;5090435;28;20080;-53
2022/07/26 09:25:46;;;;;;;8.30;4.20;;;;;;;31.76;100.00;98218.56;5090646;28;20108;-55
2022/07/26 09:28:22;;;;;;;7.13;4.18;;;;;;;32.23;100.00;98150.94;5090469;28;20462;-51
2022/07/26 09:30:52;;;;;;;5.18;3.42;;;;;;;32.86;100.00;98164.94;5090337;28;20047;-53
2022/07/26 09:33:19;;;;;;;7.10;3.75;;;;;;;33.60;100.00;98165.91;5090248;28;20109;-51
2022/07/26 09:36:00;;;;;;;10.32;4.85;;;;;;;34.17;100.00;98185.41;5090217;28;20047;-53
2022/07/26 09:38:38;;;;;;;7.82;4.78;;;;;;;34.18;100.00;98206.81;5090304;28;20130;-54
2022/07/26 09:41:16;;;;;;;10.07;4.20;;;;;;;34.12;100.00;98203.34;5090161;28;20052;-55
2022/07/26 09:43:43;;;;;;;5.75;3.38;;;;;;;32.87;100.00;98201.28;5090360;28;20048;-54
2022/07/26 09:46:09;;;;;;;3.80;2.60;;;;;;;33.41;100.00;98202.91;5089894;28;20058;-55
2022/07/26 09:48:38;;;;;;;6.97;3.90;;;;;;;32.60;100.00;98230.88;5089946;28;20531;-55
2022/07/26 09:51:05;;;;;;;4.18;2.95;;;;;;;31.54;100.00;98199.75;5089930;28;20056;-52
2022/07/26 09:53:40;;;;;;;3.88;2.75;;;;;;;31.71;100.00;98171.97;5090019;28;20155;-52
2022/07/26 09:56:07;;;;;;;5.90;3.08;;;;;;;31.46;100.00;98168.44;5089721;28;20088;-54
2022/07/26 09:58:35;;;;;;;6.47;2.90;;;;;;;32.39;100.00;98139.88;5089671;28;20211;-55
2022/07/26 10:01:01;;;;;;;8.73;2.75;;;;;;;33.35;100.00;98176.69;5090221;28;20498;-53
2022/07/26 10:03:29;;;;;;;8.77;4.70;;;;;;;32.88;100.00;98179.34;5089737;28;20044;-54
2022/07/26 10:05:56;;;;;;;5.28;3.33;;;;;;;33.02;100.00;98178.06;5090079;28;20059;-55
2022/07/26 10:08:22;;;;;;;7.03;3.72;;;;;;;32.52;100.00;98179.66;5089615;28;20048;-52
2022/07/26 10:10:54;;;;;;;9.68;3.33;;;;;;;32.12;100.00;98168.09;5089831;28;20190;-51
2022/07/26 10:13:22;;;;;;;6.13;3.25;;;;;;;32.20;100.00;98129.34;5089518;28;20048;-53
2022/07/26 10:15:49;;;;;;;5.85;2.97;;;;;;;32.30;100.00;98124.78;5089720;28;20052;-52
2022/07/26 10:18:48;;;;;;;7.88;2.70;;;;;;;32.05;100.00;98123.38;5089700;28;20062;-55
2022/07/26 10:21:20;;;;;;;5.25;3.22;;;;;;;30.81;100.00;98115.56;5093079;28;20533;-56
2022/07/26 10:23:47;;;;;;;9.48;2.85;;;;;;;31.16;100.00;98100.53;5093091;28;20463;-52
2022/07/26 10:26:37;;;;;;;6.03;2.83;;;;;;;30.73;100.00;98087.06;5093253;28;20052;-54
2022/07/26 10:29:28;;;;;;;6.32;2.72;;;;;;;30.11;100.00;98059.28;5093379;28;20047;-54
2022/07/26 10:32:19;;;;;;;6.15;2.67;;;;;;;30.75;100.00;98052.56;5093063;28;20056;-52
2022/07/26 10:34:46;;;;;;;8.73;2.30;;;;;;;30.07;100.00;98091.97;5092859;28;20051;-54
2022/07/26 10:37:26;;;;;;;7.38;2.42;;;;;;;30.40;100.00;98083.25;5092840;28;20419;-56
2022/07/26 10:40:15;;;;;;;4.85;2.78;;;;;;;30.18;100.00;98086.22;5092688;28;20090;-54
2022/07/26 10:42:43;;;;;;;7.93;2.45;;;;;;;29.87;100.00;98076.94;5093134;28;20130;-54
2022/07/26 10:45:17;;;;;;;8.10;2.80;;;;;;;29.95;100.00;97998.78;5092900;28;20515;-52
2022/07/26 10:48:10;;;;;;;5.60;3.08;;;;;;;29.44;100.00;98008.88;5092823;28;20135;-53
2022/07/26 10:50:36;;;;;;;4.25;2.53;;;;;;;29.26;100.00;97998.97;5092693;28;20056;-55
2022/07/26 10:53:04;;;;;;;6.93;3.13;;;;;;;29.08;100.00;98003.13;5092516;28;20495;-51
2022/07/26 10:55:30;;;;;;;5.30;3.10;;;;;;;28.95;100.00;98023.41;5092610;28;20058;-53
2022/07/26 10:57:57;;;;;;;5.28;2.95;;;;;;;29.02;100.00;98005.22;5092542;28;20050;-54
2022/07/26 11:00:25;;;;;;;6.75;3.50;;;;;;;29.06;100.00;98011.38;5092965;28;20048;-53
2022/07/26 11:02:56;;;;;;;6.80;2.78;;;;;;;29.27;100.00;97955.34;5092612;28;20055;-51
2022/07/26 11:05:27;;;;;;;3.22;2.40;;;;;;;29.80;100.00;97997.63;5092764;28;20479;-52
2022/07/26 11:08:07;;;;;;;4.78;2.45;;;;;;;29.16;100.00;98038.00;5092442;28;20054;-54
2022/07/26 11:10:37;;;;;;;4.88;2.80;;;;;;;28.76;100.00;97989.41;5092449;28;20083;-54
2022/07/26 11:13:06;;;;;;;5.78;2.83;;;;;;;29.19;100.00;97957.16;5092364;28;20139;-53
2022/07/26 11:15:33;;;;;;;3.28;2.33;;;;;;;29.34;100.00;97959.66;5092093;28;20088;-55
2022/07/26 11:18:15;;;;;;;5.60;2.80;;;;;;;29.15;100.00;97979.25;5092560;28;20416;-51
2022/07/26 11:20:43;;;;;;;4.75;2.45;;;;;;;28.83;100.00;97917.59;5092066;28;20055;-55
2022/07/26 11:23:30;;;;;;;9.55;2.47;;;;;;;27.95;100.00;97934.19;5092175;28;20052;-52
2022/07/26 11:26:08;;;;;;;10.88;2.63;;;;;;;28.09;100.00;97936.75;5092063;28;20138;-53
2022/07/26 11:28:55;;;;;;;2.65;2.10;;;;;;;27.73;100.00;97856.88;5092316;28;20083;-52
2022/07/26 11:31:25;;;;;;;3.60;2.55;;;;;;;27.53;100.00;97868.41;5092177;28;20048;-51